Seabulk Challenge — KNJL — position and weather

sailwx.info

Track history (hours):
 
Tides and Currents Weather Stations Pressure Air Temp Water Temp Dewpoint Dewpoint Depression Visibility Wind Speed Wind Dir Waves Ship Positions

Seabulk Challenge

Owner: Seabulk Tankers, Inc., Fort Lauderdale, FL. More information available from US FCC via Universal Licensing System and Coast Guard Vessel Documentation Center.

Last reported at 2016-Dec-07 01:06 UTC. Time now 2016-Dec-09 07:55 UTC.
Position N 25°15' W 080°05'.

Length 192 m; draft 8.2 m.

Type: Tanker. MMSI: 303104000.

Date/timePositionNaut miles runAvg speedWind from/ knotsBaromVisibWave heightAir tempDewpointWater temp
2016-Dec-07 01:06N 25°15' W 080°05'712.3
2016-Dec-07 00:34N 25°21' W 080°02'1212.3
2016-Dec-06 23:34N 25°33' W 080°01'1212.0
2016-Dec-06 22:33N 25°45' W 079°59'1211.9
2016-Dec-06 21:33N 25°57' W 079°58'1212.0
2016-Dec-06 20:34N 26°09' W 079°57'2412.1
2016-Dec-06 18:32N 26°33' W 079°52'1311.4
2016-Dec-06 17:21N 26°46' W 079°50'911.6
2016-Dec-06 16:33N 26°55' W 079°52'1111.3
2016-Dec-06 15:34N 27°06' W 079°54'  
2016-Dec-04 04:31N 38°51' W 075°05'1111.3
2016-Dec-04 03:33N 39°01' W 075°09'1413.8
2016-Dec-04 02:33N 39°13' W 075°18'1514.9
2016-Dec-04 01:33N 39°24' W 075°30'1414.1
2016-Dec-04 00:33N 39°38' W 075°34'1312.9
2016-Dec-03 23:33N 39°49' W 075°24'1010.5
2016-Dec-03 22:33N 39°53' W 075°12'7 7.1
2016-Dec-03 21:33N 39°58' W 075°06'0 0.3
2016-Dec-03 20:33N 39°59' W 075°06'0 0.0
2016-Dec-03 19:34N 39°59' W 075°06'0 0.0
2016-Dec-03 18:30N 39°59' W 075°06'0 0.0
2016-Dec-03 17:33N 39°59' W 075°06'0 0.0
2016-Dec-03 16:34N 39°59' W 075°06'0 0.0
2016-Dec-03 15:34N 39°59' W 075°06'0 0.0
2016-Dec-03 14:34N 39°59' W 075°06'0 0.0
2016-Dec-03 13:33N 39°59' W 075°06'0 0.0
2016-Dec-03 12:33N 39°59' W 075°06'0 0.0
2016-Dec-03 11:28N 39°59' W 075°06'0 0.0
2016-Dec-03 10:21N 39°59' W 075°06'0 0.0
2016-Dec-03 09:31N 39°59' W 075°06'0 0.0
2016-Dec-03 08:30N 39°59' W 075°06'0 0.0
2016-Dec-03 07:33N 39°59' W 075°06'0 0.0
2016-Dec-03 06:33N 39°59' W 075°06'0 0.0
2016-Dec-03 05:30N 39°59' W 075°06'0 0.0
2016-Dec-03 04:33N 39°59' W 075°06'0 0.0
2016-Dec-03 03:33N 39°59' W 075°06'0 0.0
2016-Dec-03 02:33N 39°59' W 075°06'0 0.0
2016-Dec-03 01:33N 39°59' W 075°06'0 0.0
2016-Dec-03 00:33N 39°59' W 075°06'0 0.0
2016-Dec-02 23:33N 39°59' W 075°06'0 0.0
2016-Dec-02 22:33N 39°59' W 075°06'0 0.0
2016-Dec-02 21:33N 39°59' W 075°06'0 0.0
2016-Dec-02 20:33N 39°59' W 075°06'0 0.0
2016-Dec-02 19:33N 39°59' W 075°06'0 0.0
2016-Dec-02 18:33N 39°59' W 075°06'0 0.0
2016-Dec-02 17:33N 39°59' W 075°06'0 0.0
2016-Dec-02 16:33N 39°59' W 075°06'0 0.0
2016-Dec-02 15:33N 39°59' W 075°06'0 0.0
2016-Dec-02 14:33N 39°59' W 075°06'0 0.0
2016-Dec-02 13:33N 39°59' W 075°06'0 0.0
2016-Dec-02 12:33N 39°59' W 075°06'0 0.0
2016-Dec-02 11:33N 39°59' W 075°06'0 0.0
2016-Dec-02 10:33N 39°59' W 075°06'0 0.0
2016-Dec-02 09:33N 39°59' W 075°06'0 0.0
2016-Dec-02 08:33N 39°59' W 075°06'0 0.0
2016-Dec-02 07:33N 39°59' W 075°06'0 0.0
2016-Dec-02 06:33N 39°59' W 075°06'0 0.0
2016-Dec-02 05:33N 39°59' W 075°06'0 0.0
2016-Dec-02 04:33N 39°59' W 075°06'0 0.0
2016-Dec-02 03:33N 39°59' W 075°06'0 0.0
2016-Dec-02 02:33N 39°59' W 075°06'0 0.0
2016-Dec-02 01:30N 39°59' W 075°06'0 0.0
2016-Dec-02 00:33N 39°59' W 075°06'0 0.0
2016-Dec-01 23:31N 39°59' W 075°06'0 0.0
2016-Dec-01 22:33N 39°59' W 075°06'0 0.0
2016-Dec-01 21:33N 39°59' W 075°06'0 0.0
2016-Dec-01 20:33N 39°59' W 075°06'0 0.0
2016-Dec-01 19:33N 39°59' W 075°06'0 0.0
2016-Dec-01 18:33N 39°59' W 075°06'0 0.0
2016-Dec-01 17:33N 39°59' W 075°06'0 0.0
2016-Dec-01 16:33N 39°59' W 075°06'0 0.0
2016-Dec-01 15:33N 39°59' W 075°06'2 1.7
2016-Dec-01 14:33N 39°58' W 075°08'4 4.3
2016-Dec-01 13:33N 39°54' W 075°08'8 7.6
2016-Dec-01 12:33N 39°51' W 075°17'6 5.6
2016-Dec-01 11:33N 39°48' W 075°24'0 0.0
2016-Dec-01 10:33N 39°48' W 075°24'0 0.0
2016-Dec-01 09:33N 39°48' W 075°24'0 0.1
2016-Dec-01 08:33N 39°48' W 075°24'0 0.1
2016-Dec-01 07:33N 39°49' W 075°24'0 0.1
2016-Dec-01 06:33N 39°49' W 075°24'0 0.0
2016-Dec-01 05:33N 39°49' W 075°24'0 0.0
2016-Dec-01 04:33N 39°49' W 075°24'0 0.0
2016-Dec-01 03:33N 39°49' W 075°24'0 0.1
2016-Dec-01 02:33N 39°48' W 075°24'0 0.2
2016-Dec-01 01:33N 39°48' W 075°24'0 0.2
2016-Dec-01 00:33N 39°49' W 075°24'9 8.6
2016-Nov-30 23:33N 39°42' W 075°31'1010.2
2016-Nov-30 22:33N 39°32' W 075°33'1110.9
2016-Nov-30 21:33N 39°22' W 075°27'1212.0
2016-Nov-30 20:33N 39°12' W 075°17'1212.4
2016-Nov-30 19:33N 39°01' W 075°09'7 6.7
2016-Nov-30 18:29N 38°54' W 075°08'0 0.0
2016-Nov-30 17:11N 38°54' W 075°08'0 0.2
2016-Nov-30 16:29N 38°55' W 075°08'0 0.0
2016-Nov-30 15:23N 38°55' W 075°08'0 0.0
2016-Nov-30 14:32N 38°55' W 075°08'0 0.0
2016-Nov-30 13:32N 38°55' W 075°08'0 0.0
2016-Nov-30 12:29N 38°55' W 075°08'0 0.0
2016-Nov-30 11:29N 38°55' W 075°08'0 0.0
2016-Nov-30 07:26N 38°54' W 075°08'0 0.0
2016-Nov-30 06:29N 38°54' W 075°08'0 0.0
2016-Nov-30 05:29N 38°54' W 075°08'0 0.0
2016-Nov-30 04:32N 38°55' W 075°07'0 0.1
2016-Nov-30 03:29N 38°55' W 075°08'0 0.1
2016-Nov-30 01:23N 38°55' W 075°08'0 0.0
2016-Nov-30 00:29N 38°55' W 075°08'0 0.0
2016-Nov-29 23:29N 38°55' W 075°08'0 0.1
2016-Nov-29 22:29N 38°55' W 075°08'0 0.0
2016-Nov-29 21:26N 38°55' W 075°08'0 0.1
2016-Nov-29 20:23N 38°55' W 075°08'0 0.1
2016-Nov-29 19:32N 38°54' W 075°08'0 0.1
2016-Nov-29 18:32N 38°54' W 075°08'0 0.0
2016-Nov-29 17:26N 38°54' W 075°08'0 0.0
2016-Nov-29 16:32N 38°54' W 075°08'0 0.1
2016-Nov-29 15:32N 38°55' W 075°08'0 0.0
2016-Nov-29 14:32N 38°55' W 075°08'0 0.0
2016-Nov-29 13:29N 38°55' W 075°08'0 0.0
2016-Nov-29 12:32N 38°55' W 075°08'0 0.0
2016-Nov-29 11:20N 38°55' W 075°08'0 0.0
2016-Nov-29 10:26N 38°55' W 075°08'0 0.0
2016-Nov-29 09:26N 38°55' W 075°08'0 0.0
2016-Nov-29 08:32N 38°55' W 075°08'0 0.2
2016-Nov-29 07:32N 38°54' W 075°07'0 0.1
2016-Nov-29 06:32N 38°54' W 075°07'0 0.0
2016-Nov-29 05:29N 38°54' W 075°07'0 0.0
2016-Nov-29 04:33N 38°54' W 075°07'0 0.1
2016-Nov-29 03:33N 38°54' W 075°07'4 3.9
2016-Nov-29 02:33N 38°51' W 075°04'9 8.8
2016-Nov-29 01:33N 38°48' W 074°54'8 7.9
2016-Nov-29 00:31N 38°46' W 074°44'1110.9
2016-Nov-28 23:33N 38°39' W 074°34'0 0.2
2016-Nov-28 22:33N 38°39' W 074°34'3 2.6
2016-Nov-28 21:32N 38°37' W 074°36'5 2.2
2016-Nov-28 19:12N 38°40' W 074°31'9 3.2
2016-Nov-28 16:30N 38°35' W 074°22'18 8.2
2016-Nov-28 14:20N 38°44' W 074°42'810.0
2016-Nov-28 13:33N 38°46' W 074°52'10 9.5
2016-Nov-28 12:31N 38°49' W 075°04'1212.3
2016-Nov-28 11:33N 39°00' W 075°09'1413.8
2016-Nov-28 10:34N 39°12' W 075°17'1515.4
2016-Nov-28 09:34N 39°24' W 075°30'1514.8
2016-Nov-28 08:33N 39°39' W 075°33'1313.5
2016-Nov-28 07:33N 39°50' W 075°22'1111.0
2016-Nov-28 06:33N 39°53' W 075°09'6 6.2
2016-Nov-28 05:33N 39°59' W 075°06'0 0.0
2016-Nov-28 04:31N 39°59' W 075°06'0 0.0
2016-Nov-28 03:31N 39°59' W 075°06'0 0.0
2016-Nov-28 02:34N 39°59' W 075°06'0 0.0
2016-Nov-28 01:31N 39°59' W 075°06'0 0.0
2016-Nov-28 00:34N 39°59' W 075°06'0 0.0
2016-Nov-27 23:31N 39°59' W 075°06'0 0.0
2016-Nov-27 22:34N 39°59' W 075°06'0 0.0
2016-Nov-27 21:31N 39°59' W 075°06'0 0.0
2016-Nov-27 20:31N 39°59' W 075°06'0 0.0
2016-Nov-27 19:33N 39°59' W 075°06'0 0.0
2016-Nov-27 18:31N 39°59' W 075°06'0 0.0
2016-Nov-27 17:34N 39°59' W 075°06'0 0.0
2016-Nov-27 16:33N 39°59' W 075°06'0 0.0
2016-Nov-27 15:33N 39°59' W 075°06'0 0.0
2016-Nov-27 14:33N 39°59' W 075°06'0 0.0
2016-Nov-27 13:34N 39°59' W 075°06'0 0.0
2016-Nov-27 12:33N 39°59' W 075°06'0 0.0
2016-Nov-27 11:34N 39°59' W 075°06'0 0.0
2016-Nov-27 10:33N 39°59' W 075°06'0 0.0
2016-Nov-27 09:34N 39°59' W 075°06'0 0.0
2016-Nov-27 08:16N 39°59' W 075°06'0 0.0
2016-Nov-27 07:31N 39°59' W 075°06'0 0.0
2016-Nov-27 06:31N 39°59' W 075°06'0 0.0
2016-Nov-27 05:09N 39°59' W 075°06'0 0.0
2016-Nov-27 04:31N 39°59' W 075°06'0 0.0
2016-Nov-27 03:28N 39°59' W 075°06'0 0.0
2016-Nov-27 02:33N 39°59' W 075°06'0 0.0
2016-Nov-27 01:32N 39°59' W 075°06'  
Track history (hours):
 
Tides and Currents Weather Stations Pressure Air Temp Water Temp Dewpoint Dewpoint Depression Visibility Wind Speed Wind Dir Waves Ship Positions

Seabulk Challenge

Owner: Seabulk Tankers, Inc., Fort Lauderdale, FL. More information available from US FCC via Universal Licensing System and Coast Guard Vessel Documentation Center.

Last reported at 2016-Dec-07 01:06 UTC. Time now 2016-Dec-09 07:55 UTC.
Position N 25°15' W 080°05'.

Length 192 m; draft 8.2 m.

Type: Tanker. MMSI: 303104000.

Date/timePositionNaut miles runAvg speedWind from/ knotsBaromVisibWave heightAir tempDewpointWater temp
2016-Dec-07 01:06N 25°15' W 080°05'712.3
2016-Dec-07 00:34N 25°21' W 080°02'1212.3
2016-Dec-06 23:34N 25°33' W 080°01'1212.0
2016-Dec-06 22:33N 25°45' W 079°59'1211.9
2016-Dec-06 21:33N 25°57' W 079°58'1212.0
2016-Dec-06 20:34N 26°09' W 079°57'2412.1
2016-Dec-06 18:32N 26°33' W 079°52'1311.4
2016-Dec-06 17:21N 26°46' W 079°50'911.6
2016-Dec-06 16:33N 26°55' W 079°52'1111.3
2016-Dec-06 15:34N 27°06' W 079°54'  
2016-Dec-04 04:31N 38°51' W 075°05'1111.3
2016-Dec-04 03:33N 39°01' W 075°09'1413.8
2016-Dec-04 02:33N 39°13' W 075°18'1514.9
2016-Dec-04 01:33N 39°24' W 075°30'1414.1
2016-Dec-04 00:33N 39°38' W 075°34'1312.9
2016-Dec-03 23:33N 39°49' W 075°24'1010.5
2016-Dec-03 22:33N 39°53' W 075°12'7 7.1
2016-Dec-03 21:33N 39°58' W 075°06'0 0.3
2016-Dec-03 20:33N 39°59' W 075°06'0 0.0
2016-Dec-03 19:34N 39°59' W 075°06'0 0.0
2016-Dec-03 18:30N 39°59' W 075°06'0 0.0
2016-Dec-03 17:33N 39°59' W 075°06'0 0.0
2016-Dec-03 16:34N 39°59' W 075°06'0 0.0
2016-Dec-03 15:34N 39°59' W 075°06'0 0.0
2016-Dec-03 14:34N 39°59' W 075°06'0 0.0
2016-Dec-03 13:33N 39°59' W 075°06'0 0.0
2016-Dec-03 12:33N 39°59' W 075°06'0 0.0
2016-Dec-03 11:28N 39°59' W 075°06'0 0.0
2016-Dec-03 10:21N 39°59' W 075°06'0 0.0
2016-Dec-03 09:31N 39°59' W 075°06'0 0.0
2016-Dec-03 08:30N 39°59' W 075°06'0 0.0
2016-Dec-03 07:33N 39°59' W 075°06'0 0.0
2016-Dec-03 06:33N 39°59' W 075°06'0 0.0
2016-Dec-03 05:30N 39°59' W 075°06'0 0.0
2016-Dec-03 04:33N 39°59' W 075°06'0 0.0
2016-Dec-03 03:33N 39°59' W 075°06'0 0.0
2016-Dec-03 02:33N 39°59' W 075°06'0 0.0
2016-Dec-03 01:33N 39°59' W 075°06'0 0.0
2016-Dec-03 00:33N 39°59' W 075°06'0 0.0
2016-Dec-02 23:33N 39°59' W 075°06'0 0.0
2016-Dec-02 22:33N 39°59' W 075°06'0 0.0
2016-Dec-02 21:33N 39°59' W 075°06'0 0.0
2016-Dec-02 20:33N 39°59' W 075°06'0 0.0
2016-Dec-02 19:33N 39°59' W 075°06'0 0.0
2016-Dec-02 18:33N 39°59' W 075°06'0 0.0
2016-Dec-02 17:33N 39°59' W 075°06'0 0.0
2016-Dec-02 16:33N 39°59' W 075°06'0 0.0
2016-Dec-02 15:33N 39°59' W 075°06'0 0.0
2016-Dec-02 14:33N 39°59' W 075°06'0 0.0
2016-Dec-02 13:33N 39°59' W 075°06'0 0.0
2016-Dec-02 12:33N 39°59' W 075°06'0 0.0
2016-Dec-02 11:33N 39°59' W 075°06'0 0.0
2016-Dec-02 10:33N 39°59' W 075°06'0 0.0
2016-Dec-02 09:33N 39°59' W 075°06'0 0.0
2016-Dec-02 08:33N 39°59' W 075°06'0 0.0
2016-Dec-02 07:33N 39°59' W 075°06'0 0.0
2016-Dec-02 06:33N 39°59' W 075°06'0 0.0
2016-Dec-02 05:33N 39°59' W 075°06'0 0.0
2016-Dec-02 04:33N 39°59' W 075°06'0 0.0
2016-Dec-02 03:33N 39°59' W 075°06'0 0.0
2016-Dec-02 02:33N 39°59' W 075°06'0 0.0
2016-Dec-02 01:30N 39°59' W 075°06'0 0.0
2016-Dec-02 00:33N 39°59' W 075°06'0 0.0
2016-Dec-01 23:31N 39°59' W 075°06'0 0.0
2016-Dec-01 22:33N 39°59' W 075°06'0 0.0
2016-Dec-01 21:33N 39°59' W 075°06'0 0.0
2016-Dec-01 20:33N 39°59' W 075°06'0 0.0
2016-Dec-01 19:33N 39°59' W 075°06'0 0.0
2016-Dec-01 18:33N 39°59' W 075°06'0 0.0
2016-Dec-01 17:33N 39°59' W 075°06'0 0.0
2016-Dec-01 16:33N 39°59' W 075°06'0 0.0
2016-Dec-01 15:33N 39°59' W 075°06'2 1.7
2016-Dec-01 14:33N 39°58' W 075°08'4 4.3
2016-Dec-01 13:33N 39°54' W 075°08'8 7.6
2016-Dec-01 12:33N 39°51' W 075°17'6 5.6
2016-Dec-01 11:33N 39°48' W 075°24'0 0.0
2016-Dec-01 10:33N 39°48' W 075°24'0 0.0
2016-Dec-01 09:33N 39°48' W 075°24'0 0.1
2016-Dec-01 08:33N 39°48' W 075°24'0 0.1
2016-Dec-01 07:33N 39°49' W 075°24'0 0.1
2016-Dec-01 06:33N 39°49' W 075°24'0 0.0
2016-Dec-01 05:33N 39°49' W 075°24'0 0.0
2016-Dec-01 04:33N 39°49' W 075°24'0 0.0
2016-Dec-01 03:33N 39°49' W 075°24'0 0.1
2016-Dec-01 02:33N 39°48' W 075°24'0 0.2
2016-Dec-01 01:33N 39°48' W 075°24'0 0.2
2016-Dec-01 00:33N 39°49' W 075°24'9 8.6
2016-Nov-30 23:33N 39°42' W 075°31'1010.2
2016-Nov-30 22:33N 39°32' W 075°33'1110.9
2016-Nov-30 21:33N 39°22' W 075°27'1212.0
2016-Nov-30 20:33N 39°12' W 075°17'1212.4
2016-Nov-30 19:33N 39°01' W 075°09'7 6.7
2016-Nov-30 18:29N 38°54' W 075°08'0 0.0
2016-Nov-30 17:11N 38°54' W 075°08'0 0.2
2016-Nov-30 16:29N 38°55' W 075°08'0 0.0
2016-Nov-30 15:23N 38°55' W 075°08'0 0.0
2016-Nov-30 14:32N 38°55' W 075°08'0 0.0
2016-Nov-30 13:32N 38°55' W 075°08'0 0.0
2016-Nov-30 12:29N 38°55' W 075°08'0 0.0
2016-Nov-30 11:29N 38°55' W 075°08'0 0.0
2016-Nov-30 07:26N 38°54' W 075°08'0 0.0
2016-Nov-30 06:29N 38°54' W 075°08'0 0.0
2016-Nov-30 05:29N 38°54' W 075°08'0 0.0
2016-Nov-30 04:32N 38°55' W 075°07'0 0.1
2016-Nov-30 03:29N 38°55' W 075°08'0 0.1
2016-Nov-30 01:23N 38°55' W 075°08'0 0.0
2016-Nov-30 00:29N 38°55' W 075°08'0 0.0
2016-Nov-29 23:29N 38°55' W 075°08'0 0.1
2016-Nov-29 22:29N 38°55' W 075°08'0 0.0
2016-Nov-29 21:26N 38°55' W 075°08'0 0.1
2016-Nov-29 20:23N 38°55' W 075°08'0 0.1
2016-Nov-29 19:32N 38°54' W 075°08'0 0.1
2016-Nov-29 18:32N 38°54' W 075°08'0 0.0
2016-Nov-29 17:26N 38°54' W 075°08'0 0.0
2016-Nov-29 16:32N 38°54' W 075°08'0 0.1
2016-Nov-29 15:32N 38°55' W 075°08'0 0.0
2016-Nov-29 14:32N 38°55' W 075°08'0 0.0
2016-Nov-29 13:29N 38°55' W 075°08'0 0.0
2016-Nov-29 12:32N 38°55' W 075°08'0 0.0
2016-Nov-29 11:20N 38°55' W 075°08'0 0.0
2016-Nov-29 10:26N 38°55' W 075°08'0 0.0
2016-Nov-29 09:26N 38°55' W 075°08'0 0.0
2016-Nov-29 08:32N 38°55' W 075°08'0 0.2
2016-Nov-29 07:32N 38°54' W 075°07'0 0.1
2016-Nov-29 06:32N 38°54' W 075°07'0 0.0
2016-Nov-29 05:29N 38°54' W 075°07'0 0.0
2016-Nov-29 04:33N 38°54' W 075°07'0 0.1
2016-Nov-29 03:33N 38°54' W 075°07'4 3.9
2016-Nov-29 02:33N 38°51' W 075°04'9 8.8
2016-Nov-29 01:33N 38°48' W 074°54'8 7.9
2016-Nov-29 00:31N 38°46' W 074°44'1110.9
2016-Nov-28 23:33N 38°39' W 074°34'0 0.2
2016-Nov-28 22:33N 38°39' W 074°34'3 2.6
2016-Nov-28 21:32N 38°37' W 074°36'5 2.2
2016-Nov-28 19:12N 38°40' W 074°31'9 3.2
2016-Nov-28 16:30N 38°35' W 074°22'18 8.2
2016-Nov-28 14:20N 38°44' W 074°42'810.0
2016-Nov-28 13:33N 38°46' W 074°52'10 9.5
2016-Nov-28 12:31N 38°49' W 075°04'1212.3
2016-Nov-28 11:33N 39°00' W 075°09'1413.8
2016-Nov-28 10:34N 39°12' W 075°17'1515.4
2016-Nov-28 09:34N 39°24' W 075°30'1514.8
2016-Nov-28 08:33N 39°39' W 075°33'1313.5
2016-Nov-28 07:33N 39°50' W 075°22'1111.0
2016-Nov-28 06:33N 39°53' W 075°09'6 6.2
2016-Nov-28 05:33N 39°59' W 075°06'0 0.0
2016-Nov-28 04:31N 39°59' W 075°06'0 0.0
2016-Nov-28 03:31N 39°59' W 075°06'0 0.0
2016-Nov-28 02:34N 39°59' W 075°06'0 0.0
2016-Nov-28 01:31N 39°59' W 075°06'0 0.0
2016-Nov-28 00:34N 39°59' W 075°06'0 0.0
2016-Nov-27 23:31N 39°59' W 075°06'0 0.0
2016-Nov-27 22:34N 39°59' W 075°06'0 0.0
2016-Nov-27 21:31N 39°59' W 075°06'0 0.0
2016-Nov-27 20:31N 39°59' W 075°06'0 0.0
2016-Nov-27 19:33N 39°59' W 075°06'0 0.0
2016-Nov-27 18:31N 39°59' W 075°06'0 0.0
2016-Nov-27 17:34N 39°59' W 075°06'0 0.0
2016-Nov-27 16:33N 39°59' W 075°06'0 0.0
2016-Nov-27 15:33N 39°59' W 075°06'0 0.0
2016-Nov-27 14:33N 39°59' W 075°06'0 0.0
2016-Nov-27 13:34N 39°59' W 075°06'0 0.0
2016-Nov-27 12:33N 39°59' W 075°06'0 0.0
2016-Nov-27 11:34N 39°59' W 075°06'0 0.0
2016-Nov-27 10:33N 39°59' W 075°06'0 0.0
2016-Nov-27 09:34N 39°59' W 075°06'0 0.0
2016-Nov-27 08:16N 39°59' W 075°06'0 0.0
2016-Nov-27 07:31N 39°59' W 075°06'0 0.0
2016-Nov-27 06:31N 39°59' W 075°06'0 0.0
2016-Nov-27 05:09N 39°59' W 075°06'0 0.0
2016-Nov-27 04:31N 39°59' W 075°06'0 0.0
2016-Nov-27 03:28N 39°59' W 075°06'0 0.0
2016-Nov-27 02:33N 39°59' W 075°06'0 0.0
2016-Nov-27 01:32N 39°59' W 075°06'  

Dump ship's entire track history